sensor_id;sensor_type;location;lat;lon;timestamp;temperature;humidity
37678;DHT22;23517;50.390;8.616;2022-08-25T00:02:14;17.80;47.50
37678;DHT22;23517;50.390;8.616;2022-08-25T00:04:43;17.80;47.50
37678;DHT22;23517;50.390;8.616;2022-08-25T00:07:19;17.80;47.60
37678;DHT22;23517;50.390;8.616;2022-08-25T00:09:45;17.70;47.70
37678;DHT22;23517;50.390;8.616;2022-08-25T00:12:12;17.70;48.10
37678;DHT22;23517;50.390;8.616;2022-08-25T00:14:39;17.70;48.30
37678;DHT22;23517;50.390;8.616;2022-08-25T00:17:06;17.70;48.30
37678;DHT22;23517;50.390;8.616;2022-08-25T00:19:34;17.60;48.50
37678;DHT22;23517;50.390;8.616;2022-08-25T00:22:04;17.60;48.50
37678;DHT22;23517;50.390;8.616;2022-08-25T00:24:32;17.60;48.80
37678;DHT22;23517;50.390;8.616;2022-08-25T00:26:59;17.50;48.90
37678;DHT22;23517;50.390;8.616;2022-08-25T00:29:28;17.50;49.10
37678;DHT22;23517;50.390;8.616;2022-08-25T00:31:57;17.50;49.40
37678;DHT22;23517;50.390;8.616;2022-08-25T00:34:29;17.50;49.70
37678;DHT22;23517;50.390;8.616;2022-08-25T00:36:59;17.50;49.80
37678;DHT22;23517;50.390;8.616;2022-08-25T00:39:27;17.50;50.00
37678;DHT22;23517;50.390;8.616;2022-08-25T00:41:55;17.50;50.00
37678;DHT22;23517;50.390;8.616;2022-08-25T00:44:24;17.40;50.10
37678;DHT22;23517;50.390;8.616;2022-08-25T00:46:55;17.30;50.40
37678;DHT22;23517;50.390;8.616;2022-08-25T00:49:37;17.30;50.70
37678;DHT22;23517;50.390;8.616;2022-08-25T00:52:11;17.30;50.70
37678;DHT22;23517;50.390;8.616;2022-08-25T00:55:06;17.30;50.80
37678;DHT22;23517;50.390;8.616;2022-08-25T00:57:46;17.30;51.10
37678;DHT22;23517;50.390;8.616;2022-08-25T01:00:20;17.30;51.30
37678;DHT22;23517;50.390;8.616;2022-08-25T01:02:50;17.30;51.50
37678;DHT22;23517;50.390;8.616;2022-08-25T01:05:17;17.30;51.40
37678;DHT22;23517;50.390;8.616;2022-08-25T01:07:45;17.20;51.70
37678;DHT22;23517;50.390;8.616;2022-08-25T01:10:12;17.20;51.80
37678;DHT22;23517;50.390;8.616;2022-08-25T01:12:39;17.20;51.90
37678;DHT22;23517;50.390;8.616;2022-08-25T01:15:08;17.20;52.30
37678;DHT22;23517;50.390;8.616;2022-08-25T01:17:51;17.10;52.30
37678;DHT22;23517;50.390;8.616;2022-08-25T01:20:22;17.20;52.30
37678;DHT22;23517;50.390;8.616;2022-08-25T01:22:56;17.10;52.50
37678;DHT22;23517;50.390;8.616;2022-08-25T01:25:55;17.10;52.60
37678;DHT22;23517;50.390;8.616;2022-08-25T01:28:25;17.10;52.90
37678;DHT22;23517;50.390;8.616;2022-08-25T01:30:52;17.10;53.20
37678;DHT22;23517;50.390;8.616;2022-08-25T01:33:21;17.20;53.00
37678;DHT22;23517;50.390;8.616;2022-08-25T01:35:48;17.20;52.60
37678;DHT22;23517;50.390;8.616;2022-08-25T01:38:15;17.20;52.90
37678;DHT22;23517;50.390;8.616;2022-08-25T01:40:42;17.10;53.10
37678;DHT22;23517;50.390;8.616;2022-08-25T01:45:39;17.10;53.30
37678;DHT22;23517;50.390;8.616;2022-08-25T01:48:08;17.20;53.30
37678;DHT22;23517;50.390;8.616;2022-08-25T01:50:35;17.20;53.10
37678;DHT22;23517;50.390;8.616;2022-08-25T01:55:44;17.10;53.60
37678;DHT22;23517;50.390;8.616;2022-08-25T01:58:35;17.10;54.00
37678;DHT22;23517;50.390;8.616;2022-08-25T02:01:07;16.90;54.20
37678;DHT22;23517;50.390;8.616;2022-08-25T02:03:42;16.80;54.60
37678;DHT22;23517;50.390;8.616;2022-08-25T02:06:14;16.70;55.00
37678;DHT22;23517;50.390;8.616;2022-08-25T02:08:42;16.60;55.20
37678;DHT22;23517;50.390;8.616;2022-08-25T02:11:13;16.60;55.50
37678;DHT22;23517;50.390;8.616;2022-08-25T02:13:41;16.70;55.60
37678;DHT22;23517;50.390;8.616;2022-08-25T02:16:09;16.80;55.60
37678;DHT22;23517;50.390;8.616;2022-08-25T02:18:41;16.80;55.50
37678;DHT22;23517;50.390;8.616;2022-08-25T02:21:08;16.80;55.60
37678;DHT22;23517;50.390;8.616;2022-08-25T02:23:36;16.80;55.60
37678;DHT22;23517;50.390;8.616;2022-08-25T02:26:03;16.90;55.40
37678;DHT22;23517;50.390;8.616;2022-08-25T02:28:30;16.90;55.30
37678;DHT22;23517;50.390;8.616;2022-08-25T02:30:57;16.80;55.20
37678;DHT22;23517;50.390;8.616;2022-08-25T02:35:57;16.70;55.30
37678;DHT22;23517;50.390;8.616;2022-08-25T02:38:25;16.70;56.00
37678;DHT22;23517;50.390;8.616;2022-08-25T02:40:54;16.70;56.30
37678;DHT22;23517;50.390;8.616;2022-08-25T02:43:22;16.50;56.60
37678;DHT22;23517;50.390;8.616;2022-08-25T02:45:52;16.50;57.10
37678;DHT22;23517;50.390;8.616;2022-08-25T02:48:20;16.50;57.20
37678;DHT22;23517;50.390;8.616;2022-08-25T02:50:49;16.60;57.20
37678;DHT22;23517;50.390;8.616;2022-08-25T02:53:19;16.60;57.10
37678;DHT22;23517;50.390;8.616;2022-08-25T02:55:46;16.60;56.90
37678;DHT22;23517;50.390;8.616;2022-08-25T02:58:13;16.60;57.10
37678;DHT22;23517;50.390;8.616;2022-08-25T03:00:40;16.60;57.20
37678;DHT22;23517;50.390;8.616;2022-08-25T03:03:08;16.50;57.40
37678;DHT22;23517;50.390;8.616;2022-08-25T03:05:35;16.30;57.80
37678;DHT22;23517;50.390;8.616;2022-08-25T03:08:03;16.30;58.20
37678;DHT22;23517;50.390;8.616;2022-08-25T03:10:31;16.20;58.80
37678;DHT22;23517;50.390;8.616;2022-08-25T03:12:58;16.20;59.10
37678;DHT22;23517;50.390;8.616;2022-08-25T03:15:25;16.30;58.80
37678;DHT22;23517;50.390;8.616;2022-08-25T03:17:56;16.20;58.80
37678;DHT22;23517;50.390;8.616;2022-08-25T03:20:25;16.20;59.30
37678;DHT22;23517;50.390;8.616;2022-08-25T03:22:55;16.20;59.30
37678;DHT22;23517;50.390;8.616;2022-08-25T03:25:22;16.10;59.50
37678;DHT22;23517;50.390;8.616;2022-08-25T03:28:07;16.10;59.60
37678;DHT22;23517;50.390;8.616;2022-08-25T03:30:34;16.10;59.60
37678;DHT22;23517;50.390;8.616;2022-08-25T03:33:01;16.00;60.00
37678;DHT22;23517;50.390;8.616;2022-08-25T03:35:28;16.10;60.60
37678;DHT22;23517;50.390;8.616;2022-08-25T03:37:57;16.00;60.50
37678;DHT22;23517;50.390;8.616;2022-08-25T03:40:25;16.00;61.00
37678;DHT22;23517;50.390;8.616;2022-08-25T03:42:52;16.10;60.30
37678;DHT22;23517;50.390;8.616;2022-08-25T03:45:21;16.00;60.80
37678;DHT22;23517;50.390;8.616;2022-08-25T03:47:49;16.00;61.00
37678;DHT22;23517;50.390;8.616;2022-08-25T03:50:18;15.90;61.20
37678;DHT22;23517;50.390;8.616;2022-08-25T03:52:53;16.00;61.40
37678;DHT22;23517;50.390;8.616;2022-08-25T03:55:22;16.00;61.00
37678;DHT22;23517;50.390;8.616;2022-08-25T03:57:51;16.00;61.40
37678;DHT22;23517;50.390;8.616;2022-08-25T04:00:21;16.00;61.20
37678;DHT22;23517;50.390;8.616;2022-08-25T04:02:49;16.00;61.20
37678;DHT22;23517;50.390;8.616;2022-08-25T04:05:15;15.90;61.60
37678;DHT22;23517;50.390;8.616;2022-08-25T04:07:42;15.90;62.00
37678;DHT22;23517;50.390;8.616;2022-08-25T04:10:09;15.80;62.30
37678;DHT22;23517;50.390;8.616;2022-08-25T04:12:38;15.80;62.20
37678;DHT22;23517;50.390;8.616;2022-08-25T04:15:06;15.90;62.30
37678;DHT22;23517;50.390;8.616;2022-08-25T04:17:38;15.90;62.30
37678;DHT22;23517;50.390;8.616;2022-08-25T04:20:08;15.90;62.90
37678;DHT22;23517;50.390;8.616;2022-08-25T04:22:39;15.90;63.00
37678;DHT22;23517;50.390;8.616;2022-08-25T04:25:10;15.80;62.60
37678;DHT22;23517;50.390;8.616;2022-08-25T04:27:38;15.70;63.30
37678;DHT22;23517;50.390;8.616;2022-08-25T04:30:06;15.70;64.30
37678;DHT22;23517;50.390;8.616;2022-08-25T04:32:34;15.70;63.40
37678;DHT22;23517;50.390;8.616;2022-08-25T04:35:03;15.70;63.20
37678;DHT22;23517;50.390;8.616;2022-08-25T04:37:30;15.70;64.20
37678;DHT22;23517;50.390;8.616;2022-08-25T04:39:58;15.70;64.70
37678;DHT22;23517;50.390;8.616;2022-08-25T04:42:26;15.70;64.10
37678;DHT22;23517;50.390;8.616;2022-08-25T04:44:52;15.80;64.20
37678;DHT22;23517;50.390;8.616;2022-08-25T04:47:20;15.90;63.70
37678;DHT22;23517;50.390;8.616;2022-08-25T04:49:47;15.90;62.70
37678;DHT22;23517;50.390;8.616;2022-08-25T04:52:14;15.90;63.10
37678;DHT22;23517;50.390;8.616;2022-08-25T04:54:41;15.80;63.80
37678;DHT22;23517;50.390;8.616;2022-08-25T04:57:09;15.80;64.00
37678;DHT22;23517;50.390;8.616;2022-08-25T04:59:36;15.90;64.00
37678;DHT22;23517;50.390;8.616;2022-08-25T05:02:03;15.90;63.90
37678;DHT22;23517;50.390;8.616;2022-08-25T05:04:33;16.00;63.30
37678;DHT22;23517;50.390;8.616;2022-08-25T05:07:02;15.90;63.60
37678;DHT22;23517;50.390;8.616;2022-08-25T05:09:29;15.90;64.30
37678;DHT22;23517;50.390;8.616;2022-08-25T05:11:59;15.90;64.50
37678;DHT22;23517;50.390;8.616;2022-08-25T05:14:27;16.00;64.50
37678;DHT22;23517;50.390;8.616;2022-08-25T05:16:54;16.10;64.40
37678;DHT22;23517;50.390;8.616;2022-08-25T05:19:23;16.10;63.90
37678;DHT22;23517;50.390;8.616;2022-08-25T05:21:52;16.10;64.40
37678;DHT22;23517;50.390;8.616;2022-08-25T05:24:19;16.10;64.30
37678;DHT22;23517;50.390;8.616;2022-08-25T05:26:48;16.20;64.60
37678;DHT22;23517;50.390;8.616;2022-08-25T05:29:14;16.20;64.10
37678;DHT22;23517;50.390;8.616;2022-08-25T05:31:41;16.20;64.80
37678;DHT22;23517;50.390;8.616;2022-08-25T05:34:16;16.30;64.90
37678;DHT22;23517;50.390;8.616;2022-08-25T05:36:44;16.30;64.90
37678;DHT22;23517;50.390;8.616;2022-08-25T05:39:11;16.40;64.70
37678;DHT22;23517;50.390;8.616;2022-08-25T05:41:38;16.50;64.30
37678;DHT22;23517;50.390;8.616;2022-08-25T05:44:05;16.60;64.60
37678;DHT22;23517;50.390;8.616;2022-08-25T05:46:32;16.70;64.40
37678;DHT22;23517;50.390;8.616;2022-08-25T05:48:58;16.80;64.30
37678;DHT22;23517;50.390;8.616;2022-08-25T05:51:25;16.80;64.40
37678;DHT22;23517;50.390;8.616;2022-08-25T05:53:52;16.90;64.40
37678;DHT22;23517;50.390;8.616;2022-08-25T05:56:20;17.00;64.30
37678;DHT22;23517;50.390;8.616;2022-08-25T05:58:47;17.20;64.70
37678;DHT22;23517;50.390;8.616;2022-08-25T06:01:23;17.30;63.60
37678;DHT22;23517;50.390;8.616;2022-08-25T06:04:11;17.40;63.30
37678;DHT22;23517;50.390;8.616;2022-08-25T06:06:39;17.60;63.30
37678;DHT22;23517;50.390;8.616;2022-08-25T06:09:07;17.70;63.10
37678;DHT22;23517;50.390;8.616;2022-08-25T06:11:36;18.10;62.60
37678;DHT22;23517;50.390;8.616;2022-08-25T06:14:05;18.80;58.90
37678;DHT22;23517;50.390;8.616;2022-08-25T06:16:33;19.50;56.80
37678;DHT22;23517;50.390;8.616;2022-08-25T06:19:00;20.50;52.60
37678;DHT22;23517;50.390;8.616;2022-08-25T06:21:27;21.70;50.30
37678;DHT22;23517;50.390;8.616;2022-08-25T06:23:53;22.60;46.80
37678;DHT22;23517;50.390;8.616;2022-08-25T06:26:20;23.80;41.30
37678;DHT22;23517;50.390;8.616;2022-08-25T06:28:49;25.00;38.10
37678;DHT22;23517;50.390;8.616;2022-08-25T06:31:16;26.50;33.40
37678;DHT22;23517;50.390;8.616;2022-08-25T06:33:44;28.20;30.20
37678;DHT22;23517;50.390;8.616;2022-08-25T06:36:11;29.50;27.70
37678;DHT22;23517;50.390;8.616;2022-08-25T06:38:38;30.80;24.20
37678;DHT22;23517;50.390;8.616;2022-08-25T06:41:06;32.30;21.60
37678;DHT22;23517;50.390;8.616;2022-08-25T06:43:36;33.50;20.00
37678;DHT22;23517;50.390;8.616;2022-08-25T06:46:12;34.50;18.60
37678;DHT22;23517;50.390;8.616;2022-08-25T06:48:41;34.70;18.20
37678;DHT22;23517;50.390;8.616;2022-08-25T06:51:10;34.30;18.70
37678;DHT22;23517;50.390;8.616;2022-08-25T06:53:40;34.00;18.40
37678;DHT22;23517;50.390;8.616;2022-08-25T06:56:08;33.40;19.00
37678;DHT22;23517;50.390;8.616;2022-08-25T06:58:36;34.50;18.60
37678;DHT22;23517;50.390;8.616;2022-08-25T07:01:09;35.50;17.60
37678;DHT22;23517;50.390;8.616;2022-08-25T07:03:45;36.80;15.80
37678;DHT22;23517;50.390;8.616;2022-08-25T07:06:13;36.90;16.40
37678;DHT22;23517;50.390;8.616;2022-08-25T07:08:44;36.90;15.90
37678;DHT22;23517;50.390;8.616;2022-08-25T07:11:12;37.30;15.60
37678;DHT22;23517;50.390;8.616;2022-08-25T07:13:42;37.50;15.60
37678;DHT22;23517;50.390;8.616;2022-08-25T07:16:10;37.30;15.40
37678;DHT22;23517;50.390;8.616;2022-08-25T07:18:37;36.70;16.30
37678;DHT22;23517;50.390;8.616;2022-08-25T07:21:04;37.80;15.10
37678;DHT22;23517;50.390;8.616;2022-08-25T07:23:35;38.30;14.60
37678;DHT22;23517;50.390;8.616;2022-08-25T07:26:23;37.80;14.80
37678;DHT22;23517;50.390;8.616;2022-08-25T07:29:27;37.60;15.40
37678;DHT22;23517;50.390;8.616;2022-08-25T07:32:02;36.80;16.00
37678;DHT22;23517;50.390;8.616;2022-08-25T07:34:30;37.00;16.20
37678;DHT22;23517;50.390;8.616;2022-08-25T07:37:20;37.40;16.10
37678;DHT22;23517;50.390;8.616;2022-08-25T07:40:14;37.80;15.60
37678;DHT22;23517;50.390;8.616;2022-08-25T07:42:44;38.70;14.50
37678;DHT22;23517;50.390;8.616;2022-08-25T07:45:11;38.80;14.50
37678;DHT22;23517;50.390;8.616;2022-08-25T07:47:38;38.50;14.60
37678;DHT22;23517;50.390;8.616;2022-08-25T07:50:07;37.70;15.10
37678;DHT22;23517;50.390;8.616;2022-08-25T07:52:39;37.40;15.80
37678;DHT22;23517;50.390;8.616;2022-08-25T07:55:07;37.80;15.60
37678;DHT22;23517;50.390;8.616;2022-08-25T07:57:39;37.90;15.40
37678;DHT22;23517;50.390;8.616;2022-08-25T08:00:08;37.80;15.40
37678;DHT22;23517;50.390;8.616;2022-08-25T08:02:40;37.50;16.10
37678;DHT22;23517;50.390;8.616;2022-08-25T08:05:08;38.00;15.60
37678;DHT22;23517;50.390;8.616;2022-08-25T08:07:36;37.10;16.20
37678;DHT22;23517;50.390;8.616;2022-08-25T08:10:12;37.10;16.10
37678;DHT22;23517;50.390;8.616;2022-08-25T08:13:01;37.70;15.60
37678;DHT22;23517;50.390;8.616;2022-08-25T08:15:36;39.00;15.20
37678;DHT22;23517;50.390;8.616;2022-08-25T08:20:33;39.70;13.30
37678;DHT22;23517;50.390;8.616;2022-08-25T08:23:10;39.40;14.10
37678;DHT22;23517;50.390;8.616;2022-08-25T08:25:37;39.20;14.90
37678;DHT22;23517;50.390;8.616;2022-08-25T08:28:04;39.30;13.90
37678;DHT22;23517;50.390;8.616;2022-08-25T08:30:33;38.60;14.40
37678;DHT22;23517;50.390;8.616;2022-08-25T08:33:02;38.40;14.60
37678;DHT22;23517;50.390;8.616;2022-08-25T08:35:40;38.30;15.20
37678;DHT22;23517;50.390;8.616;2022-08-25T08:38:08;39.10;14.80
37678;DHT22;23517;50.390;8.616;2022-08-25T08:40:48;40.10;14.60
37678;DHT22;23517;50.390;8.616;2022-08-25T08:43:53;40.80;13.10
37678;DHT22;23517;50.390;8.616;2022-08-25T08:46:31;39.30;13.90
37678;DHT22;23517;50.390;8.616;2022-08-25T08:49:14;39.70;13.70
37678;DHT22;23517;50.390;8.616;2022-08-25T08:51:57;38.30;14.60
37678;DHT22;23517;50.390;8.616;2022-08-25T08:54:29;38.60;14.60
37678;DHT22;23517;50.390;8.616;2022-08-25T08:57:11;39.40;13.90
37678;DHT22;23517;50.390;8.616;2022-08-25T08:59:48;39.20;14.30
37678;DHT22;23517;50.390;8.616;2022-08-25T09:02:33;39.50;13.50
37678;DHT22;23517;50.390;8.616;2022-08-25T09:05:19;38.60;22.30
37678;DHT22;23517;50.390;8.616;2022-08-25T09:08:18;39.50;14.00
37678;DHT22;23517;50.390;8.616;2022-08-25T09:14:19;39.80;12.90
37678;DHT22;23517;50.390;8.616;2022-08-25T09:17:05;39.20;13.30
37678;DHT22;23517;50.390;8.616;2022-08-25T09:29:07;38.30;15.20
37678;DHT22;23517;50.390;8.616;2022-08-25T09:31:42;37.90;15.00
37678;DHT22;23517;50.390;8.616;2022-08-25T09:34:23;37.90;15.20
37678;DHT22;23517;50.390;8.616;2022-08-25T09:36:55;38.10;15.00
37678;DHT22;23517;50.390;8.616;2022-08-25T09:39:22;38.90;14.40
37678;DHT22;23517;50.390;8.616;2022-08-25T09:41:50;39.00;14.00
37678;DHT22;23517;50.390;8.616;2022-08-25T09:44:30;38.90;14.30
37678;DHT22;23517;50.390;8.616;2022-08-25T09:49:59;38.70;14.40
37678;DHT22;23517;50.390;8.616;2022-08-25T09:52:35;38.00;15.30
37678;DHT22;23517;50.390;8.616;2022-08-25T10:11:00;31.40;21.90
37678;DHT22;23517;50.390;8.616;2022-08-25T10:16:21;29.40;25.30
37678;DHT22;23517;50.390;8.616;2022-08-25T10:22:08;29.20;26.50
37678;DHT22;23517;50.390;8.616;2022-08-25T10:24:39;29.10;27.10
37678;DHT22;23517;50.390;8.616;2022-08-25T10:31:01;29.00;27.30
37678;DHT22;23517;50.390;8.616;2022-08-25T10:36:21;28.90;26.40
37678;DHT22;23517;50.390;8.616;2022-08-25T10:38:57;28.60;27.40
37678;DHT22;23517;50.390;8.616;2022-08-25T10:41:53;28.40;27.40
37678;DHT22;23517;50.390;8.616;2022-08-25T10:44:48;28.20;27.90
37678;DHT22;23517;50.390;8.616;2022-08-25T10:51:40;28.40;27.10
37678;DHT22;23517;50.390;8.616;2022-08-25T10:57:21;28.20;26.90
37678;DHT22;23517;50.390;8.616;2022-08-25T11:00:08;28.60;26.50
37678;DHT22;23517;50.390;8.616;2022-08-25T11:08:33;29.40;24.40
37678;DHT22;23517;50.390;8.616;2022-08-25T11:11:12;29.10;25.30
37678;DHT22;23517;50.390;8.616;2022-08-25T11:13:47;28.90;25.50
37678;DHT22;23517;50.390;8.616;2022-08-25T11:19:25;29.00;26.40
37678;DHT22;23517;50.390;8.616;2022-08-25T11:30:16;28.80;25.00
37678;DHT22;23517;50.390;8.616;2022-08-25T11:32:47;28.70;25.60
37678;DHT22;23517;50.390;8.616;2022-08-25T11:35:19;28.50;25.80
37678;DHT22;23517;50.390;8.616;2022-08-25T11:40:59;28.50;25.90
37678;DHT22;23517;50.390;8.616;2022-08-25T11:44:00;28.60;25.80
37678;DHT22;23517;50.390;8.616;2022-08-25T11:49:52;28.80;24.90
37678;DHT22;23517;50.390;8.616;2022-08-25T11:58:19;28.60;25.30
37678;DHT22;23517;50.390;8.616;2022-08-25T12:00:58;28.80;25.30
37678;DHT22;23517;50.390;8.616;2022-08-25T12:06:21;29.00;25.20
37678;DHT22;23517;50.390;8.616;2022-08-25T12:11:48;29.10;25.10
37678;DHT22;23517;50.390;8.616;2022-08-25T12:27:37;30.00;23.30
37678;DHT22;23517;50.390;8.616;2022-08-25T12:36:05;29.60;23.20
37678;DHT22;23517;50.390;8.616;2022-08-25T12:38:47;29.50;23.40
37678;DHT22;23517;50.390;8.616;2022-08-25T12:41:23;29.50;23.50
37678;DHT22;23517;50.390;8.616;2022-08-25T12:49:49;29.20;24.00
37678;DHT22;23517;50.390;8.616;2022-08-25T12:52:19;29.10;24.30
37678;DHT22;23517;50.390;8.616;2022-08-25T12:55:02;29.10;23.60
37678;DHT22;23517;50.390;8.616;2022-08-25T12:57:41;29.10;23.60
37678;DHT22;23517;50.390;8.616;2022-08-25T13:00:24;29.20;23.40
37678;DHT22;23517;50.390;8.616;2022-08-25T13:09:59;29.70;21.60
37678;DHT22;23517;50.390;8.616;2022-08-25T13:13:00;29.60;22.30
37678;DHT22;23517;50.390;8.616;2022-08-25T13:18:20;29.70;22.80
37678;DHT22;23517;50.390;8.616;2022-08-25T13:20:54;29.70;21.50
37678;DHT22;23517;50.390;8.616;2022-08-25T13:23:29;29.40;22.60
37678;DHT22;23517;50.390;8.616;2022-08-25T13:26:01;29.40;23.00
37678;DHT22;23517;50.390;8.616;2022-08-25T13:28:32;29.30;23.30
37678;DHT22;23517;50.390;8.616;2022-08-25T13:33:36;29.20;23.80
37678;DHT22;23517;50.390;8.616;2022-08-25T13:36:03;29.40;23.40
37678;DHT22;23517;50.390;8.616;2022-08-25T13:38:49;29.20;23.30
37678;DHT22;23517;50.390;8.616;2022-08-25T13:41:23;29.30;23.50
37678;DHT22;23517;50.390;8.616;2022-08-25T13:43:59;29.30;23.30
37678;DHT22;23517;50.390;8.616;2022-08-25T13:46:28;29.40;23.30
37678;DHT22;23517;50.390;8.616;2022-08-25T13:49:05;29.40;22.90
37678;DHT22;23517;50.390;8.616;2022-08-25T13:51:35;29.50;22.70
37678;DHT22;23517;50.390;8.616;2022-08-25T13:54:05;29.50;22.80
37678;DHT22;23517;50.390;8.616;2022-08-25T13:56:36;29.60;22.70
37678;DHT22;23517;50.390;8.616;2022-08-25T13:59:31;29.70;22.30
37678;DHT22;23517;50.390;8.616;2022-08-25T14:02:07;29.90;21.70
37678;DHT22;23517;50.390;8.616;2022-08-25T14:04:47;30.00;21.90
37678;DHT22;23517;50.390;8.616;2022-08-25T14:09:56;30.10;21.20
37678;DHT22;23517;50.390;8.616;2022-08-25T14:12:41;30.20;21.00
37678;DHT22;23517;50.390;8.616;2022-08-25T14:15:30;30.30;20.50
37678;DHT22;23517;50.390;8.616;2022-08-25T14:18:07;30.20;20.70
37678;DHT22;23517;50.390;8.616;2022-08-25T14:20:45;30.20;20.40
37678;DHT22;23517;50.390;8.616;2022-08-25T14:23:19;30.20;20.30
37678;DHT22;23517;50.390;8.616;2022-08-25T14:25:51;30.20;20.30
37678;DHT22;23517;50.390;8.616;2022-08-25T14:28:23;30.20;20.60
37678;DHT22;23517;50.390;8.616;2022-08-25T14:30:57;30.30;21.00
37678;DHT22;23517;50.390;8.616;2022-08-25T14:33:34;30.40;20.10
37678;DHT22;23517;50.390;8.616;2022-08-25T14:36:09;30.50;20.40
37678;DHT22;23517;50.390;8.616;2022-08-25T14:38:36;30.60;20.00
37678;DHT22;23517;50.390;8.616;2022-08-25T14:41:06;30.60;19.50
37678;DHT22;23517;50.390;8.616;2022-08-25T14:43:34;30.60;19.50
37678;DHT22;23517;50.390;8.616;2022-08-25T14:46:09;30.40;19.40
37678;DHT22;23517;50.390;8.616;2022-08-25T14:48:43;30.40;19.60
37678;DHT22;23517;50.390;8.616;2022-08-25T14:51:12;30.60;19.20
37678;DHT22;23517;50.390;8.616;2022-08-25T14:53:41;30.70;19.00
37678;DHT22;23517;50.390;8.616;2022-08-25T14:56:09;30.50;18.60
37678;DHT22;23517;50.390;8.616;2022-08-25T14:58:36;30.50;19.00
37678;DHT22;23517;50.390;8.616;2022-08-25T15:01:20;30.50;19.00
37678;DHT22;23517;50.390;8.616;2022-08-25T15:04:00;30.30;19.20
37678;DHT22;23517;50.390;8.616;2022-08-25T15:06:33;30.20;19.60
37678;DHT22;23517;50.390;8.616;2022-08-25T15:09:02;30.20;19.20
37678;DHT22;23517;50.390;8.616;2022-08-25T15:11:34;30.10;19.50
37678;DHT22;23517;50.390;8.616;2022-08-25T15:14:04;30.10;19.40
37678;DHT22;23517;50.390;8.616;2022-08-25T15:16:45;29.90;19.40
37678;DHT22;23517;50.390;8.616;2022-08-25T15:19:16;29.90;19.40
37678;DHT22;23517;50.390;8.616;2022-08-25T15:21:46;29.80;19.50
37678;DHT22;23517;50.390;8.616;2022-08-25T15:24:14;29.80;20.00
37678;DHT22;23517;50.390;8.616;2022-08-25T15:27:03;29.90;19.50
37678;DHT22;23517;50.390;8.616;2022-08-25T15:29:31;29.80;19.70
37678;DHT22;23517;50.390;8.616;2022-08-25T15:32:03;29.80;19.90
37678;DHT22;23517;50.390;8.616;2022-08-25T15:34:33;29.90;19.70
37678;DHT22;23517;50.390;8.616;2022-08-25T15:37:13;29.90;20.00
37678;DHT22;23517;50.390;8.616;2022-08-25T15:39:43;29.90;19.80
37678;DHT22;23517;50.390;8.616;2022-08-25T15:42:11;29.90;19.70
37678;DHT22;23517;50.390;8.616;2022-08-25T15:44:38;29.90;20.00
37678;DHT22;23517;50.390;8.616;2022-08-25T15:47:07;29.90;20.30
37678;DHT22;23517;50.390;8.616;2022-08-25T15:49:38;29.90;20.40
37678;DHT22;23517;50.390;8.616;2022-08-25T15:52:07;29.70;20.40
37678;DHT22;23517;50.390;8.616;2022-08-25T15:54:35;29.70;20.80
37678;DHT22;23517;50.390;8.616;2022-08-25T15:57:01;29.60;21.10
37678;DHT22;23517;50.390;8.616;2022-08-25T15:59:34;29.60;21.40
37678;DHT22;23517;50.390;8.616;2022-08-25T16:02:01;29.50;21.30
37678;DHT22;23517;50.390;8.616;2022-08-25T16:04:29;29.40;21.40
37678;DHT22;23517;50.390;8.616;2022-08-25T16:06:56;29.40;21.20
37678;DHT22;23517;50.390;8.616;2022-08-25T16:09:24;29.40;21.50
37678;DHT22;23517;50.390;8.616;2022-08-25T16:11:51;29.40;21.50
37678;DHT22;23517;50.390;8.616;2022-08-25T16:14:23;29.40;21.40
37678;DHT22;23517;50.390;8.616;2022-08-25T16:16:51;29.40;21.80
37678;DHT22;23517;50.390;8.616;2022-08-25T16:19:26;29.40;21.80
37678;DHT22;23517;50.390;8.616;2022-08-25T16:22:04;29.30;22.40
37678;DHT22;23517;50.390;8.616;2022-08-25T16:24:41;29.30;22.50
37678;DHT22;23517;50.390;8.616;2022-08-25T16:27:13;29.30;22.50
37678;DHT22;23517;50.390;8.616;2022-08-25T16:29:42;29.20;22.40
37678;DHT22;23517;50.390;8.616;2022-08-25T16:32:11;29.20;22.10
37678;DHT22;23517;50.390;8.616;2022-08-25T16:34:39;29.20;22.40
37678;DHT22;23517;50.390;8.616;2022-08-25T16:37:06;29.20;22.30
37678;DHT22;23517;50.390;8.616;2022-08-25T16:39:34;29.20;22.10
37678;DHT22;23517;50.390;8.616;2022-08-25T16:42:05;29.20;22.00
37678;DHT22;23517;50.390;8.616;2022-08-25T16:44:32;29.20;22.00
37678;DHT22;23517;50.390;8.616;2022-08-25T16:46:59;29.20;21.90
37678;DHT22;23517;50.390;8.616;2022-08-25T16:49:26;29.20;21.90
37678;DHT22;23517;50.390;8.616;2022-08-25T16:51:53;29.10;22.40
37678;DHT22;23517;50.390;8.616;2022-08-25T16:54:24;29.20;22.50
37678;DHT22;23517;50.390;8.616;2022-08-25T16:57:10;29.20;22.40
37678;DHT22;23517;50.390;8.616;2022-08-25T16:59:37;29.10;21.80
37678;DHT22;23517;50.390;8.616;2022-08-25T17:02:03;29.00;21.90
37678;DHT22;23517;50.390;8.616;2022-08-25T17:04:31;28.90;21.40
37678;DHT22;23517;50.390;8.616;2022-08-25T17:06:58;28.90;21.20
37678;DHT22;23517;50.390;8.616;2022-08-25T17:09:30;28.80;21.20
37678;DHT22;23517;50.390;8.616;2022-08-25T17:11:57;28.70;21.60
37678;DHT22;23517;50.390;8.616;2022-08-25T17:14:24;28.70;21.60
37678;DHT22;23517;50.390;8.616;2022-08-25T17:16:51;28.60;21.60
37678;DHT22;23517;50.390;8.616;2022-08-25T17:19:21;28.60;21.60
37678;DHT22;23517;50.390;8.616;2022-08-25T17:21:49;28.50;22.00
37678;DHT22;23517;50.390;8.616;2022-08-25T17:24:17;28.40;22.10
37678;DHT22;23517;50.390;8.616;2022-08-25T17:26:45;28.30;21.90
37678;DHT22;23517;50.390;8.616;2022-08-25T17:29:16;28.30;22.00
37678;DHT22;23517;50.390;8.616;2022-08-25T17:31:43;28.20;21.80
37678;DHT22;23517;50.390;8.616;2022-08-25T17:34:14;28.20;21.70
37678;DHT22;23517;50.390;8.616;2022-08-25T17:36:46;28.10;21.80
37678;DHT22;23517;50.390;8.616;2022-08-25T17:39:14;28.10;21.90
37678;DHT22;23517;50.390;8.616;2022-08-25T17:41:43;28.00;22.50
37678;DHT22;23517;50.390;8.616;2022-08-25T17:44:12;27.90;22.20
37678;DHT22;23517;50.390;8.616;2022-08-25T17:46:41;27.80;22.40
37678;DHT22;23517;50.390;8.616;2022-08-25T17:49:14;27.70;23.40
37678;DHT22;23517;50.390;8.616;2022-08-25T17:51:41;27.50;24.10
37678;DHT22;23517;50.390;8.616;2022-08-25T17:54:08;27.30;24.70
37678;DHT22;23517;50.390;8.616;2022-08-25T17:56:36;27.10;25.80
37678;DHT22;23517;50.390;8.616;2022-08-25T17:59:03;27.00;26.00
37678;DHT22;23517;50.390;8.616;2022-08-25T18:01:33;26.80;26.50
37678;DHT22;23517;50.390;8.616;2022-08-25T18:04:07;26.70;27.10
37678;DHT22;23517;50.390;8.616;2022-08-25T18:06:43;26.40;27.80
37678;DHT22;23517;50.390;8.616;2022-08-25T18:09:10;26.30;28.50
37678;DHT22;23517;50.390;8.616;2022-08-25T18:11:37;26.10;28.90
37678;DHT22;23517;50.390;8.616;2022-08-25T18:14:04;25.90;29.10
37678;DHT22;23517;50.390;8.616;2022-08-25T18:16:31;25.70;30.00